Time,TemperatureF,DewpointF,PressureIn,WindDirection,WindDirectionDegrees,WindSpeedMPH,WindSpeedGustMPH,Humidity,HourlyPrecipIn,Conditions,Clouds,dailyrainin,SolarRadiationWatts/m^2,SoftwareType,DateUTC
2013-08-31 00:01:00,75.0,41.0,-100.00,West,264,10.0,15.0,29,0.00,,,0.00,0.000000,,2013-08-31 07:01:00,
2013-08-31 00:12:00,75.0,41.0,-100.00,West,264,10.0,15.0,29,0.00,,,0.00,0.000000,,2013-08-31 07:12:00,
2013-08-31 00:22:00,75.0,41.0,-100.00,West,264,10.0,15.0,29,0.00,,,0.00,0.000000,,2013-08-31 07:22:00,
2013-08-31 00:52:00,74.0,44.0,-100.00,SW,232,12.0,17.0,34,0.00,,,0.00,0.000000,,2013-08-31 07:52:00,
2013-08-31 01:03:00,74.0,44.0,-100.00,SW,232,12.0,17.0,34,0.00,,,0.00,0.000000,,2013-08-31 08:03:00,
2013-08-31 01:12:00,74.0,44.0,-100.00,SW,232,12.0,17.0,34,0.00,,,0.00,0.000000,,2013-08-31 08:12:00,
2013-08-31 01:22:00,74.0,44.0,-100.00,SW,232,12.0,17.0,34,0.00,,,0.00,0.000000,,2013-08-31 08:22:00,
2013-08-31 01:52:00,72.0,48.0,-100.00,WSW,256,9.0,15.0,43,0.00,,,0.00,0.000000,,2013-08-31 08:52:00,
2013-08-31 02:02:00,72.0,48.0,-100.00,WSW,256,9.0,15.0,43,0.00,,,0.00,0.000000,,2013-08-31 09:02:00,
2013-08-31 02:12:00,72.0,48.0,-100.00,WSW,256,9.0,15.0,43,0.00,,,0.00,0.000000,,2013-08-31 09:12:00,
2013-08-31 02:23:00,72.0,48.0,-100.00,WSW,256,9.0,15.0,43,0.00,,,0.00,0.000000,,2013-08-31 09:23:00,
2013-08-31 02:53:00,72.0,49.0,-100.00,WSW,237,9.0,13.0,44,0.00,,,0.00,0.000000,,2013-08-31 09:53:00,
2013-08-31 03:03:00,72.0,49.0,-100.00,WSW,237,9.0,13.0,44,0.00,,,0.00,0.000000,,2013-08-31 10:03:00,
2013-08-31 03:12:00,72.0,49.0,-100.00,WSW,237,9.0,13.0,44,0.00,,,0.00,0.000000,,2013-08-31 10:12:00,
2013-08-31 03:23:00,72.0,49.0,-100.00,WSW,237,9.0,13.0,44,0.00,,,0.00,0.000000,,2013-08-31 10:23:00,
2013-08-31 03:53:00,71.0,46.0,-100.00,WSW,248,9.0,14.0,41,0.00,,,0.00,0.000000,,2013-08-31 10:53:00,
2013-08-31 04:02:00,71.0,46.0,-100.00,WSW,248,9.0,14.0,41,0.00,,,0.00,0.000000,,2013-08-31 11:02:00,
2013-08-31 04:12:00,71.0,46.0,-100.00,WSW,248,9.0,14.0,41,0.00,,,0.00,0.000000,,2013-08-31 11:12:00,
2013-08-31 04:21:00,71.0,46.0,-100.00,WSW,248,9.0,14.0,41,0.00,,,0.00,0.000000,,2013-08-31 11:21:00,
2013-08-31 04:52:00,68.0,49.0,-100.00,West,263,13.0,18.0,50,0.00,,,0.00,0.000000,,2013-08-31 11:52:00,
2013-08-31 05:02:00,68.0,49.0,-100.00,West,263,13.0,18.0,50,0.00,,,0.00,0.000000,,2013-08-31 12:02:00,
2013-08-31 05:11:00,68.0,49.0,-100.00,West,263,13.0,18.0,50,0.00,,,0.00,0.000000,,2013-08-31 12:11:00,
2013-08-31 05:21:00,68.0,49.0,-100.00,West,263,13.0,18.0,50,0.00,,,0.00,0.000000,,2013-08-31 12:21:00,
2013-08-31 05:52:00,69.0,48.0,-100.00,WSW,254,10.0,16.0,48,0.00,,,0.00,0.000000,,2013-08-31 12:52:00,
2013-08-31 06:01:00,69.0,48.0,-100.00,WSW,254,10.0,16.0,48,0.00,,,0.00,0.000000,,2013-08-31 13:01:00,
2013-08-31 06:11:00,69.0,48.0,-100.00,WSW,254,10.0,16.0,48,0.00,,,0.00,0.000000,,2013-08-31 13:11:00,
2013-08-31 06:22:00,69.0,48.0,-100.00,WSW,254,10.0,16.0,48,0.00,,,0.00,0.000000,,2013-08-31 13:22:00,
2013-08-31 06:52:00,68.0,45.0,-100.00,WSW,245,9.0,15.0,44,0.00,,,0.00,0.000000,,2013-08-31 13:52:00,
2013-08-31 07:01:00,68.0,45.0,-100.00,WSW,245,9.0,15.0,44,0.00,,,0.00,0.000000,,2013-08-31 14:01:00,
2013-08-31 07:11:00,68.0,45.0,-100.00,WSW,245,9.0,15.0,44,0.00,,,0.00,0.000000,,2013-08-31 14:11:00,
2013-08-31 07:21:00,68.0,45.0,-100.00,WSW,245,9.0,15.0,44,0.00,,,0.00,0.000000,,2013-08-31 14:21:00,
2013-08-31 07:52:00,70.0,47.0,-100.00,WSW,252,11.0,15.0,44,0.00,,,0.00,31.000000,,2013-08-31 14:52:00,
2013-08-31 08:01:00,70.0,47.0,-100.00,WSW,252,11.0,15.0,44,0.00,,,0.00,31.000000,,2013-08-31 15:01:00,
2013-08-31 08:11:00,70.0,47.0,-100.00,WSW,252,11.0,15.0,44,0.00,,,0.00,31.000000,,2013-08-31 15:11:00,
2013-08-31 08:22:00,70.0,47.0,-100.00,WSW,252,11.0,15.0,44,0.00,,,0.00,31.000000,,2013-08-31 15:22:00,
2013-08-31 08:55:00,69.0,47.0,-100.00,WSW,257,12.0,16.0,45,0.00,,,0.00,163.000000,,2013-08-31 15:55:00,
2013-08-31 09:04:00,69.0,47.0,-100.00,WSW,257,12.0,16.0,45,0.00,,,0.00,163.000000,,2013-08-31 16:04:00,
2013-08-31 09:13:00,69.0,47.0,-100.00,WSW,257,12.0,16.0,45,0.00,,,0.00,163.000000,,2013-08-31 16:13:00,
2013-08-31 09:25:00,69.0,47.0,-100.00,WSW,257,12.0,16.0,45,0.00,,,0.00,163.000000,,2013-08-31 16:25:00,
2013-08-31 09:52:00,72.0,46.0,-100.00,West,261,12.0,19.0,39,0.00,,,0.00,382.000000,,2013-08-31 16:52:00,
2013-08-31 10:03:00,72.0,46.0,-100.00,West,261,12.0,19.0,39,0.00,,,0.00,382.000000,,2013-08-31 17:03:00,
2013-08-31 10:12:00,72.0,46.0,-100.00,West,261,12.0,19.0,39,0.00,,,0.00,382.000000,,2013-08-31 17:12:00,
2013-08-31 10:23:00,72.0,46.0,-100.00,West,261,12.0,19.0,39,0.00,,,0.00,382.000000,,2013-08-31 17:23:00,
2013-08-31 10:53:00,78.0,50.0,-100.00,West,268,13.0,17.0,38,0.00,,,0.00,559.000000,,2013-08-31 17:53:00,
2013-08-31 11:02:00,78.0,50.0,-100.00,West,268,13.0,17.0,38,0.00,,,0.00,559.000000,,2013-08-31 18:02:00,
2013-08-31 11:12:00,78.0,50.0,-100.00,West,268,13.0,17.0,38,0.00,,,0.00,559.000000,,2013-08-31 18:12:00,
2013-08-31 11:21:00,78.0,50.0,-100.00,West,268,13.0,17.0,38,0.00,,,0.00,559.000000,,2013-08-31 18:21:00,
2013-08-31 11:52:00,78.0,46.0,-100.00,West,270,15.0,19.0,32,0.00,,,0.00,705.000000,,2013-08-31 18:52:00,
2013-08-31 12:01:00,78.0,46.0,-100.00,West,270,15.0,19.0,32,0.00,,,0.00,705.000000,,2013-08-31 19:01:00,
2013-08-31 12:12:00,78.0,46.0,-100.00,West,270,15.0,19.0,32,0.00,,,0.00,705.000000,,2013-08-31 19:12:00,
2013-08-31 12:21:00,78.0,46.0,-100.00,West,270,15.0,19.0,32,0.00,,,0.00,705.000000,,2013-08-31 19:21:00,
2013-08-31 12:52:00,81.0,48.0,-100.00,West,273,13.0,17.0,32,0.00,,,0.00,800.000000,,2013-08-31 19:52:00,
2013-08-31 13:02:00,81.0,48.0,-100.00,West,273,13.0,17.0,32,0.00,,,0.00,800.000000,,2013-08-31 20:02:00,
2013-08-31 13:12:00,81.0,48.0,-100.00,West,273,13.0,17.0,32,0.00,,,0.00,800.000000,,2013-08-31 20:12:00,
2013-08-31 13:22:00,81.0,48.0,-100.00,West,273,13.0,17.0,32,0.00,,,0.00,800.000000,,2013-08-31 20:22:00,
2013-08-31 13:52:00,81.0,48.0,-100.00,West,278,16.0,21.0,32,0.00,,,0.00,835.000000,,2013-08-31 20:52:00,
2013-08-31 14:02:00,81.0,48.0,-100.00,West,278,16.0,21.0,32,0.00,,,0.00,835.000000,,2013-08-31 21:02:00,
2013-08-31 14:12:00,81.0,48.0,-100.00,West,278,16.0,21.0,32,0.00,,,0.00,835.000000,,2013-08-31 21:12:00,
2013-08-31 14:21:00,81.0,48.0,-100.00,West,278,16.0,21.0,32,0.00,,,0.00,835.000000,,2013-08-31 21:21:00,
2013-08-31 14:54:00,81.0,47.0,-100.00,West,275,17.0,22.0,30,0.00,,,0.00,836.000000,,2013-08-31 21:54:00,
2013-08-31 15:04:00,81.0,47.0,-100.00,West,275,17.0,22.0,30,0.00,,,0.00,836.000000,,2013-08-31 22:04:00,
2013-08-31 15:13:00,81.0,47.0,-100.00,West,275,17.0,22.0,30,0.00,,,0.00,836.000000,,2013-08-31 22:13:00,
2013-08-31 15:23:00,81.0,47.0,-100.00,West,275,17.0,22.0,30,0.00,,,0.00,836.000000,,2013-08-31 22:23:00,
2013-08-31 15:53:00,81.0,43.0,-100.00,West,274,19.0,25.0,26,0.00,,,0.00,763.000000,,2013-08-31 22:53:00,
2013-08-31 16:03:00,81.0,43.0,-100.00,West,274,19.0,25.0,26,0.00,,,0.00,763.000000,,2013-08-31 23:03:00,
2013-08-31 16:12:00,81.0,43.0,-100.00,West,274,19.0,25.0,26,0.00,,,0.00,763.000000,,2013-08-31 23:12:00,
2013-08-31 16:22:00,81.0,43.0,-100.00,West,274,19.0,25.0,26,0.00,,,0.00,763.000000,,2013-08-31 23:22:00,
2013-08-31 16:52:00,80.0,46.0,-100.00,West,274,20.0,26.0,30,0.00,,,0.00,632.000000,,2013-08-31 23:52:00,
2013-08-31 17:01:00,80.0,46.0,-100.00,West,274,20.0,26.0,30,0.00,,,0.00,632.000000,,2013-09-01 00:01:00,
2013-08-31 17:11:00,80.0,46.0,-100.00,West,274,20.0,26.0,30,0.00,,,0.00,632.000000,,2013-09-01 00:11:00,
2013-08-31 17:21:00,80.0,46.0,-100.00,West,274,20.0,26.0,30,0.00,,,0.00,632.000000,,2013-09-01 00:21:00,
2013-08-31 17:52:00,78.0,43.0,-100.00,West,274,19.0,25.0,29,0.00,,,0.00,467.000000,,2013-09-01 00:52:00,
2013-08-31 18:02:00,78.0,43.0,-100.00,West,274,19.0,25.0,29,0.00,,,0.00,467.000000,,2013-09-01 01:02:00,
2013-08-31 18:11:00,78.0,43.0,-100.00,West,274,19.0,25.0,29,0.00,,,0.00,467.000000,,2013-09-01 01:11:00,
2013-08-31 18:21:00,78.0,43.0,-100.00,West,274,19.0,25.0,29,0.00,,,0.00,467.000000,,2013-09-01 01:21:00,
2013-08-31 18:52:00,77.0,45.0,-100.00,West,276,18.0,24.0,32,0.00,,,0.00,278.000000,,2013-09-01 01:52:00,
2013-08-31 19:02:00,77.0,45.0,-100.00,West,276,18.0,24.0,32,0.00,,,0.00,278.000000,,2013-09-01 02:02:00,
2013-08-31 19:12:00,77.0,45.0,-100.00,West,276,18.0,24.0,32,0.00,,,0.00,278.000000,,2013-09-01 02:12:00,
2013-08-31 19:22:00,77.0,45.0,-100.00,West,276,18.0,24.0,32,0.00,,,0.00,278.000000,,2013-09-01 02:22:00,
2013-08-31 19:53:00,73.0,37.0,-100.00,West,273,16.0,23.0,27,0.00,,,0.00,112.000000,,2013-09-01 02:53:00,
2013-08-31 20:02:00,73.0,37.0,-100.00,West,273,16.0,23.0,27,0.00,,,0.00,112.000000,,2013-09-01 03:02:00,
2013-08-31 20:12:00,73.0,37.0,-100.00,West,273,16.0,23.0,27,0.00,,,0.00,112.000000,,2013-09-01 03:12:00,
2013-08-31 20:54:00,66.0,46.0,-100.00,West,268,13.0,19.0,49,0.00,,,0.00,4.000000,,2013-09-01 03:54:00,
2013-08-31 21:03:00,-999.0,-99.9,-100.00,West,268,13.0,19.0,-999,-99.99,,,-99.99,4.000000,,2013-09-01 04:03:00,
2013-08-31 21:14:00,66.0,46.0,-100.00,West,268,13.0,19.0,49,0.00,,,0.00,4.000000,,2013-09-01 04:14:00,
2013-08-31 21:24:00,66.0,46.0,-100.00,West,268,13.0,19.0,49,0.00,,,0.00,4.000000,,2013-09-01 04:24:00,
2013-08-31 21:54:00,67.0,49.0,-100.00,West,261,12.0,17.0,52,0.00,,,0.00,0.000000,,2013-09-01 04:54:00,
2013-08-31 22:03:00,67.0,49.0,-100.00,West,261,12.0,17.0,52,0.00,,,0.00,0.000000,,2013-09-01 05:03:00,
2013-08-31 22:12:00,67.0,49.0,-100.00,West,261,12.0,17.0,52,0.00,,,0.00,0.000000,,2013-09-01 05:12:00,
2013-08-31 22:22:00,67.0,49.0,-100.00,West,261,12.0,17.0,52,0.00,,,0.00,0.000000,,2013-09-01 05:22:00,
2013-08-31 22:52:00,70.0,39.0,-100.00,WSW,256,11.0,19.0,32,0.00,,,0.00,0.000000,,2013-09-01 05:52:00,
2013-08-31 23:02:00,70.0,39.0,-100.00,WSW,256,11.0,19.0,32,0.00,,,0.00,0.000000,,2013-09-01 06:02:00,
2013-08-31 23:22:00,70.0,39.0,-100.00,WSW,256,11.0,19.0,32,0.00,,,0.00,0.000000,,2013-09-01 06:22:00,
2013-08-31 23:52:00,61.0,45.0,-100.00,West,267,14.0,19.0,56,0.00,,,0.00,0.000000,,2013-09-01 06:52:00,